createdAt,value
2022-08-03T00:00:37.409Z,98260.75
2022-08-03T00:03:06.053Z,98262.72
2022-08-03T00:05:35.836Z,98256.78
2022-08-03T00:08:04.669Z,98262.06
2022-08-03T00:10:35.289Z,98264.06
2022-08-03T00:13:03.700Z,98264.19
2022-08-03T00:15:31.992Z,98267.97
2022-08-03T00:18:00.574Z,98268.31
2022-08-03T00:20:28.870Z,98259.91
2022-08-03T00:22:58.743Z,98258.41
2022-08-03T00:25:27.527Z,98256.09
2022-08-03T00:27:55.995Z,98264.66
2022-08-03T00:30:26.861Z,98257.91
2022-08-03T00:33:00.217Z,98257.91
2022-08-03T00:35:36.843Z,98258.06
2022-08-03T00:38:18.735Z,98261.66
2022-08-03T00:40:47.663Z,98258.34
2022-08-03T00:43:16.005Z,98260.28
2022-08-03T00:45:44.941Z,98259.91
2022-08-03T00:48:29.483Z,98260.03
2022-08-03T00:51:02.369Z,98254.78
2022-08-03T00:53:33.449Z,98254.47
2022-08-03T00:56:01.838Z,98258.22
2022-08-03T00:58:30.609Z,98256.44
2022-08-03T01:00:59.153Z,98254.44
2022-08-03T01:03:27.720Z,98249.34
2022-08-03T01:06:05.530Z,98253.94
2022-08-03T01:08:45.732Z,98247.34
2022-08-03T01:11:22.272Z,98252.91
2022-08-03T01:14:17.870Z,98246.31
2022-08-03T01:16:58.947Z,98249.75
2022-08-03T01:19:43.713Z,98241.06
2022-08-03T01:22:24.819Z,98244.34
2022-08-03T01:25:04.892Z,98244.34
2022-08-03T01:27:53.609Z,98244.97
2022-08-03T01:30:26.085Z,98240.34
2022-08-03T01:33:02.009Z,98241.72
2022-08-03T01:35:38.863Z,98234.09
2022-08-03T01:38:13.011Z,98240.50
2022-08-03T01:40:42.931Z,98232.47
2022-08-03T01:44:27.043Z,98235.09
2022-08-03T01:46:08.786Z,98230.97
2022-08-03T01:48:39.627Z,98232.25
2022-08-03T01:51:09.386Z,98230.06
2022-08-03T01:53:40.130Z,98222.66
2022-08-03T01:56:09.698Z,98229.84
2022-08-03T01:58:40.844Z,98235.56
2022-08-03T02:01:11.444Z,98218.97
2022-08-03T02:03:58.108Z,98220.28
2022-08-03T02:06:59.691Z,98226.94
2022-08-03T02:09:22.785Z,98230.03
2022-08-03T02:11:53.392Z,98223.75
2022-08-03T02:14:23.478Z,98224.72
2022-08-03T02:16:54.123Z,98215.50
2022-08-03T02:19:24.005Z,98222.88
2022-08-03T02:21:57.023Z,98225.28
2022-08-03T02:24:30.055Z,98227.53
2022-08-03T02:27:00.013Z,98232.28
2022-08-03T02:29:38.661Z,98238.50
2022-08-03T02:32:14.520Z,98233.19
2022-08-03T02:34:48.950Z,98234.31
2022-08-03T02:37:20.982Z,98234.47
2022-08-03T02:39:53.317Z,98226.34
2022-08-03T02:42:24.525Z,98222.34
2022-08-03T02:44:56.948Z,98224.28
2022-08-03T02:47:29.187Z,98224.50
2022-08-03T02:50:18.852Z,98225.69
2022-08-03T02:52:49.281Z,98221.34
2022-08-03T02:55:18.646Z,98225.28
2022-08-03T02:57:48.613Z,98223.69
2022-08-03T03:00:27.404Z,98221.28
2022-08-03T03:03:00.493Z,98228.16
2022-08-03T03:05:52.960Z,98227.34
2022-08-03T03:08:26.150Z,98224.94
2022-08-03T03:11:01.503Z,98225.91
2022-08-03T03:13:31.851Z,98219.56
2022-08-03T03:16:03.947Z,98227.00
2022-08-03T03:18:35.522Z,98222.56
2022-08-03T03:21:05.807Z,98214.56
2022-08-03T03:23:39.028Z,98219.13
2022-08-03T03:26:08.546Z,98220.09
2022-08-03T03:28:38.157Z,98218.16
2022-08-03T03:31:07.466Z,98220.38
2022-08-03T03:33:38.687Z,98212.13
2022-08-03T03:36:08.532Z,98218.66
2022-08-03T03:38:36.876Z,98213.69
2022-08-03T03:41:06.243Z,98214.81
2022-08-03T03:43:34.629Z,98215.91
2022-08-03T03:46:03.762Z,98220.88
2022-08-03T03:48:32.320Z,98223.78
2022-08-03T03:51:02.520Z,98214.25
2022-08-03T03:53:30.960Z,98219.50
2022-08-03T03:56:02.549Z,98215.25
2022-08-03T03:58:33.412Z,98212.63
2022-08-03T04:01:02.427Z,98212.75
2022-08-03T04:03:31.083Z,98215.25
2022-08-03T04:06:18.483Z,98225.16
2022-08-03T04:09:05.160Z,98225.97
2022-08-03T04:11:38.843Z,98226.25
2022-08-03T04:14:13.622Z,98222.28
2022-08-03T04:16:47.453Z,98227.13
2022-08-03T04:19:23.284Z,98223.31
2022-08-03T04:21:57.536Z,98227.69
2022-08-03T04:24:31.995Z,98222.22
2022-08-03T04:27:02.205Z,98224.44
2022-08-03T04:29:32.308Z,98226.94
2022-08-03T04:32:03.273Z,98221.81
2022-08-03T04:34:32.355Z,98229.81
2022-08-03T04:37:07.322Z,98226.38
2022-08-03T04:39:37.267Z,98238.38
2022-08-03T04:42:09.227Z,98238.38
2022-08-03T04:44:42.252Z,98239.22
2022-08-03T04:47:10.824Z,98246.66
2022-08-03T04:49:40.147Z,98247.91
2022-08-03T04:52:10.923Z,98246.53
2022-08-03T04:54:44.374Z,98249.16
2022-08-03T04:57:23.166Z,98251.63
2022-08-03T05:00:01.408Z,98246.41
2022-08-03T05:02:33.504Z,98244.63
2022-08-03T05:05:01.783Z,98246.16
2022-08-03T05:07:36.333Z,98254.88
2022-08-03T05:10:09.146Z,98249.63
2022-08-03T05:12:44.365Z,98251.84
2022-08-03T05:15:13.238Z,98250.31
2022-08-03T05:17:41.893Z,98245.75
2022-08-03T05:20:12.100Z,98250.59
2022-08-03T05:22:41.971Z,98251.41
2022-08-03T05:25:17.421Z,98255.84
2022-08-03T05:27:48.517Z,98255.69
2022-08-03T05:30:26.758Z,98256.78
2022-08-03T05:33:03.592Z,98263.69
2022-08-03T05:35:57.366Z,98256.59
2022-08-03T05:38:23.950Z,98257.03
2022-08-03T05:41:22.972Z,98254.50
2022-08-03T05:43:46.741Z,98263.03
2022-08-03T05:46:15.309Z,98258.94
2022-08-03T05:48:44.619Z,98261.41
2022-08-03T05:51:13.476Z,98264.41
2022-08-03T05:53:44.273Z,98259.72
2022-08-03T05:56:15.975Z,98253.63
2022-08-03T05:58:47.228Z,98251.13
2022-08-03T06:01:16.481Z,98253.19
2022-08-03T06:03:45.407Z,98250.31
2022-08-03T06:06:13.815Z,98260.22
2022-08-03T06:08:45.181Z,98255.50
2022-08-03T06:11:14.263Z,98258.81
2022-08-03T06:13:42.715Z,98256.44
2022-08-03T06:16:11.569Z,98253.53
2022-08-03T06:18:41.230Z,98261.84
2022-08-03T06:21:15.352Z,98265.56
2022-08-03T06:23:54.702Z,98258.78
2022-08-03T06:26:25.978Z,98262.53
2022-08-03T06:28:54.926Z,98266.41
2022-08-03T06:31:33.120Z,98265.00
2022-08-03T06:34:33.864Z,98260.81
2022-08-03T06:36:57.441Z,98260.91
2022-08-03T06:39:31.327Z,98257.13
2022-08-03T06:41:59.735Z,98259.44
2022-08-03T06:44:28.382Z,98259.16
2022-08-03T06:46:56.817Z,98255.81
2022-08-03T06:49:25.550Z,98265.03
2022-08-03T06:52:04.976Z,98257.59
2022-08-03T06:54:36.977Z,98267.78
2022-08-03T06:57:08.200Z,98268.28
2022-08-03T07:00:09.790Z,98266.94
2022-08-03T07:02:28.266Z,98268.09
2022-08-03T07:04:57.757Z,98284.97
2022-08-03T07:07:26.279Z,98283.94
2022-08-03T07:09:57.565Z,98279.78
2022-08-03T07:12:31.015Z,98265.97
2022-08-03T07:15:02.868Z,98271.75
2022-08-03T07:17:34.660Z,98268.59
2022-08-03T07:20:07.181Z,98268.44
2022-08-03T07:22:36.246Z,98263.00
2022-08-03T07:25:07.300Z,98258.41
2022-08-03T07:27:35.912Z,98261.06
2022-08-03T07:30:07.497Z,98263.97
2022-08-03T07:32:35.804Z,98269.28
2022-08-03T07:35:24.441Z,98257.09
2022-08-03T07:37:54.323Z,98268.81
2022-08-03T07:40:30.607Z,98261.22
2022-08-03T07:43:00.284Z,98267.53
2022-08-03T07:45:28.811Z,98269.50
2022-08-03T07:47:57.249Z,98259.88
2022-08-03T07:50:25.892Z,98265.66
2022-08-03T07:52:56.075Z,98267.50
2022-08-03T07:55:27.983Z,98263.47
2022-08-03T07:58:09.325Z,98250.00
2022-08-03T08:00:38.091Z,98253.19
2022-08-03T08:03:06.666Z,98258.16
2022-08-03T08:05:35.126Z,98252.94
2022-08-03T08:08:04.220Z,98252.91
2022-08-03T08:10:34.381Z,98248.66
2022-08-03T08:13:03.283Z,98246.19
2022-08-03T08:15:33.265Z,98247.66
2022-08-03T08:18:45.828Z,98248.03
2022-08-03T08:21:14.434Z,98248.25
2022-08-03T08:23:46.188Z,98240.97
2022-08-03T08:26:23.591Z,98252.00
2022-08-03T08:28:52.863Z,98252.69
2022-08-03T08:31:21.500Z,98257.63
2022-08-03T08:34:05.662Z,98248.88
2022-08-03T08:36:34.442Z,98256.09
2022-08-03T08:39:03.251Z,98252.16
2022-08-03T08:41:34.732Z,98244.03
2022-08-03T08:44:03.227Z,98238.91
2022-08-03T08:46:34.604Z,98248.47
2022-08-03T08:49:03.292Z,98246.25
2022-08-03T08:51:59.259Z,98242.41
2022-08-03T08:54:27.176Z,98240.41
2022-08-03T08:57:00.127Z,98236.06
2022-08-03T08:59:47.712Z,98239.06
2022-08-03T09:02:17.333Z,98239.69
2022-08-03T09:04:48.727Z,98239.69
2022-08-03T09:07:20.460Z,98247.53
2022-08-03T09:10:05.322Z,98242.63
2022-08-03T09:12:45.221Z,98241.75
2022-08-03T09:15:26.689Z,98238.00
2022-08-03T09:17:57.684Z,98239.66
2022-08-03T09:20:30.498Z,98232.84
2022-08-03T09:23:01.364Z,98229.81
2022-08-03T09:25:32.731Z,98230.50
2022-08-03T09:28:11.956Z,98229.00
2022-08-03T09:30:43.622Z,98226.75
2022-08-03T09:33:15.429Z,98222.09
2022-08-03T09:35:53.567Z,98224.91
2022-08-03T09:38:26.187Z,98227.09
2022-08-03T09:40:59.436Z,98227.44
2022-08-03T09:43:31.010Z,98236.66
2022-08-03T09:46:07.520Z,98226.75
2022-08-03T09:48:37.294Z,98222.44
2022-08-03T09:51:13.574Z,98218.81
2022-08-03T09:54:00.324Z,98220.97
2022-08-03T09:56:44.764Z,98213.84
2022-08-03T09:59:25.034Z,98210.50
2022-08-03T10:01:55.082Z,98206.03
2022-08-03T10:04:24.183Z,98206.44
2022-08-03T10:07:06.471Z,98207.59
2022-08-03T10:09:35.133Z,98202.13
2022-08-03T10:12:11.535Z,98211.56
2022-08-03T10:14:45.283Z,98202.34
2022-08-03T10:17:14.113Z,98198.75
2022-08-03T10:19:42.609Z,98196.81
2022-08-03T10:22:15.498Z,98196.00
2022-08-03T10:24:54.196Z,98192.19
2022-08-03T10:27:25.074Z,98189.22
2022-08-03T10:29:57.216Z,98183.13
2022-08-03T10:32:32.203Z,98180.00
2022-08-03T10:35:13.018Z,98182.28
2022-08-03T10:37:58.949Z,98191.53
2022-08-03T10:40:49.400Z,98180.59
2022-08-03T10:43:23.248Z,98171.84
2022-08-03T10:45:53.494Z,98173.31
2022-08-03T10:48:22.766Z,98170.56
2022-08-03T10:56:01.714Z,98167.78
2022-08-03T10:58:57.448Z,98166.28
2022-08-03T11:01:58.823Z,98167.72
2022-08-03T11:04:30.823Z,98164.50
2022-08-03T11:07:22.406Z,98162.19
2022-08-03T11:09:52.860Z,98161.78
2022-08-03T11:12:30.855Z,98161.03
2022-08-03T11:15:03.080Z,98159.03
2022-08-03T11:17:45.765Z,98161.50
2022-08-03T11:20:14.860Z,98162.28
2022-08-03T11:22:54.317Z,98154.16
2022-08-03T11:25:53.598Z,98144.41
2022-08-03T11:28:27.788Z,98148.69
2022-08-03T11:30:56.854Z,98149.47
2022-08-03T11:33:33.018Z,98152.19
2022-08-03T11:36:03.352Z,98133.81
2022-08-03T11:38:31.709Z,98143.22
2022-08-03T11:41:02.696Z,98147.31
2022-08-03T11:43:49.004Z,98141.19
2022-08-03T11:46:28.521Z,98138.69
2022-08-03T11:49:10.743Z,98142.63
2022-08-03T11:51:40.544Z,98144.44
2022-08-03T11:54:09.497Z,98140.53
2022-08-03T11:56:50.020Z,98130.09
2022-08-03T11:59:22.288Z,98130.09
2022-08-03T12:01:51.868Z,98137.47
2022-08-03T12:04:21.645Z,98128.47
2022-08-03T12:07:03.660Z,98128.84
2022-08-03T12:09:34.404Z,98128.88
2022-08-03T12:12:02.993Z,98121.94
2022-08-03T12:14:48.601Z,98126.22
2022-08-03T12:17:20.271Z,98118.13
2022-08-03T12:19:50.334Z,98115.88
2022-08-03T12:22:32.489Z,98120.22
2022-08-03T12:25:01.249Z,98115.19
2022-08-03T12:27:29.966Z,98118.78
2022-08-03T12:30:00.968Z,98110.91
2022-08-03T12:32:30.880Z,98108.59
2022-08-03T12:35:04.349Z,98103.75
2022-08-03T12:37:33.598Z,98099.38
2022-08-03T12:40:10.264Z,98099.78
2022-08-03T12:42:41.428Z,98102.88
2022-08-03T12:45:26.766Z,98094.88
2022-08-03T12:47:57.126Z,98095.53
2022-08-03T12:50:31.308Z,98096.13
2022-08-03T12:53:01.865Z,98093.97
2022-08-03T12:55:57.399Z,98094.66
2022-08-03T12:58:35.032Z,98087.91
2022-08-03T13:01:10.516Z,98084.53
2022-08-03T13:03:49.691Z,98082.34
2022-08-03T13:06:26.537Z,98081.66
2022-08-03T13:09:06.486Z,98072.19
2022-08-03T13:11:47.645Z,98076.50
2022-08-03T13:14:24.377Z,98072.88
2022-08-03T13:16:52.812Z,98082.00
2022-08-03T13:19:21.257Z,98077.63
2022-08-03T13:22:03.365Z,98077.16
2022-08-03T13:24:34.224Z,98079.53
2022-08-03T13:28:01.990Z,98067.16
2022-08-03T13:29:53.975Z,98066.84
2022-08-03T13:32:22.617Z,98069.34
2022-08-03T13:34:51.924Z,98057.22
2022-08-03T13:37:22.291Z,98061.28
2022-08-03T13:40:00.213Z,98057.59
2022-08-03T13:42:31.715Z,98050.97
2022-08-03T13:45:00.366Z,98055.38
2022-08-03T13:47:29.663Z,98053.69
2022-08-03T13:50:01.437Z,98058.06
2022-08-03T13:52:35.326Z,98048.88
2022-08-03T13:55:05.581Z,98052.09
2022-08-03T13:58:19.027Z,98056.41
2022-08-03T14:00:27.005Z,98045.84
2022-08-03T14:03:14.917Z,98049.34
2022-08-03T14:05:44.555Z,98048.72
2022-08-03T14:08:14.556Z,98039.69
2022-08-03T14:10:45.690Z,98032.84
2022-08-03T14:13:17.418Z,98032.38
2022-08-03T14:15:50.894Z,98021.97
2022-08-03T14:18:28.432Z,98020.72
2022-08-03T14:21:04.989Z,98018.06
2022-08-03T14:23:38.236Z,98013.53
2022-08-03T14:26:07.867Z,98014.31
2022-08-03T14:28:37.264Z,98018.69
2022-08-03T14:32:10.193Z,98009.53
2022-08-03T14:33:54.410Z,98021.13
2022-08-03T14:36:22.743Z,98013.91
2022-08-03T14:38:52.742Z,98003.63
2022-08-03T14:41:21.467Z,98012.25
2022-08-03T14:44:01.293Z,98011.16
2022-08-03T14:46:31.035Z,98014.41
2022-08-03T14:50:29.395Z,98014.69
2022-08-03T14:51:51.239Z,98002.53
2022-08-03T14:54:23.572Z,98003.88
2022-08-03T14:56:52.572Z,97997.28
2022-08-03T14:59:21.144Z,97993.69
2022-08-03T15:02:02.308Z,97991.72
2022-08-03T15:04:32.333Z,97997.31
2022-08-03T15:07:01.469Z,97990.19
2022-08-03T15:09:31.506Z,97989.66
2022-08-03T15:12:00.450Z,97990.69
2022-08-03T15:14:33.194Z,97978.41
2022-08-03T15:17:03.411Z,97985.16
2022-08-03T15:20:00.302Z,97976.09
2022-08-03T15:22:25.386Z,97980.03
2022-08-03T15:26:31.583Z,97969.13
2022-08-03T15:28:03.616Z,97971.34
2022-08-03T15:30:36.092Z,97960.69
2022-08-03T15:33:05.051Z,97969.56
2022-08-03T15:35:33.392Z,97958.63
2022-08-03T15:38:04.972Z,97964.31
2022-08-03T15:40:37.235Z,97955.44
2022-08-03T15:43:05.841Z,97958.78
2022-08-03T15:45:35.452Z,97961.59
2022-08-03T15:48:06.210Z,97955.13
2022-08-03T15:50:34.788Z,97958.50
2022-08-03T15:53:03.372Z,97955.88
2022-08-03T15:55:32.105Z,97948.13
2022-08-03T15:59:04.506Z,97951.25
2022-08-03T16:00:50.126Z,97947.38
2022-08-03T16:03:18.458Z,97946.69
2022-08-03T16:05:47.004Z,97940.97
2022-08-03T16:08:15.503Z,97944.50
2022-08-03T16:10:44.077Z,97946.25
2022-08-03T16:13:13.972Z,97937.88
2022-08-03T16:15:42.432Z,97943.31
2022-08-03T16:18:10.872Z,97935.19
2022-08-03T16:20:39.569Z,97927.34
2022-08-03T16:23:11.413Z,97938.41
2022-08-03T16:25:41.493Z,97927.69
2022-08-03T16:28:14.716Z,97928.59
2022-08-03T16:30:47.828Z,97924.97
2022-08-03T16:33:17.812Z,97923.38
2022-08-03T16:35:46.974Z,97916.56
2022-08-03T16:38:19.080Z,97925.00
2022-08-03T16:40:51.748Z,97924.28
2022-08-03T16:43:23.341Z,97924.44
2022-08-03T16:45:53.343Z,97922.16
2022-08-03T16:48:22.081Z,97919.59
2022-08-03T16:50:50.797Z,97919.22
2022-08-03T16:53:33.705Z,97913.00
2022-08-03T16:56:10.705Z,97907.53
2022-08-03T16:58:42.046Z,97916.09
2022-08-03T17:01:22.350Z,97907.66
2022-08-03T17:04:01.393Z,97915.81
2022-08-03T17:06:36.128Z,97912.09
2022-08-03T17:09:08.893Z,97903.94
2022-08-03T17:11:46.845Z,97910.66
2022-08-03T17:14:21.836Z,97907.81
2022-08-03T17:16:54.619Z,97919.00
2022-08-03T17:19:26.264Z,97918.41
2022-08-03T17:22:04.124Z,97921.16
2022-08-03T17:24:41.142Z,97917.38
2022-08-03T17:28:42.444Z,97918.53
2022-08-03T17:30:09.846Z,97912.75
2022-08-03T17:32:56.654Z,97916.59
2022-08-03T17:35:34.397Z,97918.50
2022-08-03T17:38:10.420Z,97915.88
2022-08-03T17:40:50.216Z,97917.03
2022-08-03T17:44:12.789Z,97923.09
2022-08-03T17:46:10.906Z,97925.16
2022-08-03T17:48:42.485Z,97929.84
2022-08-03T17:51:17.847Z,97928.34
2022-08-03T17:53:53.881Z,97931.28
2022-08-03T17:56:44.995Z,97935.72
2022-08-03T17:59:52.437Z,97933.66
2022-08-03T18:02:52.103Z,97937.22
2022-08-03T18:05:22.993Z,97934.75
2022-08-03T18:08:17.676Z,97946.50
2022-08-03T18:10:49.843Z,97949.91
2022-08-03T18:13:43.461Z,97954.84
2022-08-03T18:16:26.067Z,97953.06
2022-08-03T18:19:01.218Z,97952.63
2022-08-03T18:22:02.984Z,97950.50
2022-08-03T18:24:30.415Z,97950.59
2022-08-03T18:27:02.459Z,97953.88
2022-08-03T18:29:33.710Z,97953.41
2022-08-03T18:34:53.604Z,97943.69
2022-08-03T18:37:26.078Z,97946.94
2022-08-03T18:39:58.311Z,97956.06
2022-08-03T18:42:28.476Z,97954.97
2022-08-03T18:45:54.951Z,97954.41
2022-08-03T18:48:00.230Z,97949.47
2022-08-03T18:50:36.020Z,97953.25
2022-08-03T18:53:19.467Z,97949.41
2022-08-03T18:56:01.513Z,97953.66
2022-08-03T18:58:52.295Z,97947.09
2022-08-03T19:01:59.782Z,97954.84
2022-08-03T19:04:27.225Z,97945.59
2022-08-03T19:07:03.184Z,97951.66
2022-08-03T19:09:44.257Z,97947.81
2022-08-03T19:12:26.624Z,97955.78
2022-08-03T19:15:05.736Z,97957.00
2022-08-03T19:17:43.637Z,97960.41
2022-08-03T19:20:25.180Z,97959.75
2022-08-03T19:22:55.128Z,97953.97
2022-08-03T19:25:34.356Z,97959.81
2022-08-03T19:28:06.109Z,97964.53
2022-08-03T19:30:38.732Z,97967.34
2022-08-03T19:33:12.367Z,97963.47
2022-08-03T19:35:51.654Z,97959.25
2022-08-03T19:38:29.024Z,97962.38
2022-08-03T19:41:03.501Z,97965.16
2022-08-03T19:43:53.493Z,97970.38
2022-08-03T19:46:30.273Z,97972.03
2022-08-03T19:49:10.547Z,97967.69
2022-08-03T19:52:01.744Z,97967.91
2022-08-03T19:54:45.728Z,97968.00
2022-08-03T19:57:26.857Z,97970.44
2022-08-03T19:59:57.907Z,97963.38
2022-08-03T20:02:29.653Z,97965.66
2022-08-03T20:05:00.587Z,97969.22
2022-08-03T20:07:32.339Z,97971.13
2022-08-03T20:10:04.653Z,97971.88
2022-08-03T20:12:39.362Z,97970.97
2022-08-03T20:15:10.649Z,97968.41
2022-08-03T20:17:55.584Z,97970.06
2022-08-03T20:20:29.734Z,97973.13
2022-08-03T20:23:00.655Z,97971.88
2022-08-03T20:25:38.885Z,97972.81
2022-08-03T20:28:15.137Z,97975.59
2022-08-03T20:30:46.461Z,97978.06
2022-08-03T20:33:18.253Z,97975.50
2022-08-03T20:35:49.633Z,97973.19
2022-08-03T20:38:19.750Z,97972.94
2022-08-03T20:40:53.569Z,97976.69
2022-08-03T20:43:23.900Z,97977.25
2022-08-03T20:46:00.971Z,97981.66
2022-08-03T20:48:43.921Z,97980.59
2022-08-03T20:51:19.895Z,97976.19
2022-08-03T20:54:03.045Z,97983.94
2022-08-03T20:56:34.655Z,97991.34
2022-08-03T20:59:07.353Z,97989.66
2022-08-03T21:01:44.337Z,97983.00
2022-08-03T21:04:13.509Z,97986.00
2022-08-03T21:09:47.838Z,97978.41
2022-08-03T21:12:26.857Z,97979.34
2022-08-03T21:13:04.674Z,97943.94
2022-08-03T21:13:08.029Z,97986.28
2022-08-03T21:15:04.947Z,97981.09
2022-08-03T21:17:40.859Z,97978.47
2022-08-03T21:20:11.954Z,97983.06
2022-08-03T21:22:44.593Z,97981.97
2022-08-03T21:25:16.741Z,97990.06
2022-08-03T21:27:45.564Z,97981.09
2022-08-03T21:30:15.959Z,97985.69
2022-08-03T21:32:46.287Z,97978.78
2022-08-03T21:35:15.783Z,97979.47
2022-08-03T21:37:45.355Z,97980.16
2022-08-03T21:40:16.875Z,97977.78
2022-08-03T21:42:46.732Z,97977.81
2022-08-03T21:45:17.729Z,97976.31
2022-08-03T21:47:48.512Z,97972.88
2022-08-03T21:50:18.021Z,97979.69
2022-08-03T21:52:49.111Z,97984.06
2022-08-03T21:55:20.846Z,97983.72
2022-08-03T21:57:54.271Z,97991.53
2022-08-03T22:00:24.588Z,97986.31
2022-08-03T22:02:57.328Z,97989.44
2022-08-03T22:05:29.146Z,97982.50
2022-08-03T22:08:14.215Z,97991.94
2022-08-03T22:10:45.116Z,97980.06
2022-08-03T22:13:14.727Z,97981.94
2022-08-03T22:15:44.961Z,97988.34
2022-08-03T22:18:13.628Z,97987.78
2022-08-03T22:20:42.207Z,97986.78
2022-08-03T22:23:11.427Z,97993.75
2022-08-03T22:25:41.068Z,97987.22
2022-08-03T22:28:12.222Z,97992.16
2022-08-03T22:30:44.148Z,97986.84
2022-08-03T22:33:13.360Z,97993.81
2022-08-03T22:35:47.900Z,97993.44
2022-08-03T22:38:18.129Z,97991.38
2022-08-03T22:40:51.039Z,97986.50
2022-08-03T22:43:24.395Z,97992.84
2022-08-03T22:46:09.528Z,97994.28
2022-08-03T22:48:41.849Z,97986.13
2022-08-03T22:51:10.710Z,97993.06
2022-08-03T22:53:40.807Z,98002.84
2022-08-03T22:56:09.703Z,97998.78
2022-08-03T22:58:38.129Z,98005.13
2022-08-03T23:01:10.887Z,97996.09
2022-08-03T23:04:01.010Z,97997.97
2022-08-03T23:06:35.736Z,97997.75
2022-08-03T23:09:08.000Z,98003.03
2022-08-03T23:11:38.118Z,98002.59
2022-08-03T23:14:15.081Z,98005.22
2022-08-03T23:16:48.566Z,98010.13
2022-08-03T23:19:25.065Z,98011.31
2022-08-03T23:22:02.596Z,98006.59
2022-08-03T23:24:36.784Z,98007.59
2022-08-03T23:27:07.787Z,98004.31
2022-08-03T23:29:37.629Z,98009.59
2022-08-03T23:32:10.341Z,98010.19
2022-08-03T23:34:58.762Z,98009.13
2022-08-03T23:37:27.947Z,98004.63
2022-08-03T23:39:58.180Z,98013.31
2022-08-03T23:42:27.495Z,98007.81
2022-08-03T23:44:59.428Z,98010.22
2022-08-03T23:47:46.820Z,98010.19
2022-08-03T23:50:16.808Z,98015.44
2022-08-03T23:52:59.239Z,98017.09
2022-08-03T23:55:45.787Z,98013.00
2022-08-03T23:58:27.484Z,98010.25
